Hazel Dell, Illinois
Current Conditions -  °F | °C
As of 4:53 PM on Wednesday 22 Oct 2014 (Local Time) from KMTO Reporting Station
Clear Clear  
Wind Chill: 59°   Ceiling: Unl
Heat Index: 59°   Visibility: 10mi
Dew Point: 37°   Wind: 8mph
Humidity: 44%   Direction: 40°NE
Pressure: 30.24"   Gusts: NA
Location:  39.2272°N, 88.1132°W
Report Text: KMTO 222153Z AUTO 04007KT 10SM CLR 15/03 A3024 RMK AO2 SLP243 T01500028
Loading
Personal Weather Stations






























Interactive Weather Map
Tropical Storm Tracking
New forecast layout! Learn more

10-Day Weather Forecast

Advertisements
Track Severe Weather on mobile